Terminal Aerodrome Forecast
Issued by NWS Grand Forks, ND

Home | Current Version | Previous Version | Graphics & Text | Print | Product List | Glossary On
Versions: 1 2 3 4 5 6 7 8 9 10 11 12 13 14 15
000
FTUS43 KFGF 211136
TAFFAR
TAF
KFAR 211136Z 2112/2212 35014KT P6SM VCSH OVC006
     FM211400 34011KT P6SM OVC015
      TEMPO 2114/2115 4SM -RA OVC007
     FM211500 34011KT P6SM OVC020
     FM212000 33014G20KT P6SM VCSH OVC025
     FM220100 32008KT P6SM BKN035=

USA.gov is the U.S. government's official web portal to all federal, state and local government web resources and services.